• Join FlightAware (Why Join?)
  • Login
  • US Flag 
06:15PM EDT


 

Airport Tracker/Info


-or-


 

Live Flight TrackerFlight Track Log ✈ AKX1696 ✈ 20-Jul-2013 ✈ RJSF / FKS - RJOO / ITM

Flight Track Log - Related Links

Times and Time Zones

All times are in EDT time to prevent confusion due to time zone crossing. See the AKX1696 flight status page for this flight to view local times or setup timezone preferences in your user account.

Time Position Orientation Groundspeed Altitude Reporting Facility
EDT Latitude Longitude Course Direction KTS MPH feet Rate Location/Type
04:06AM 36.0773 137.9876 240° Southwest  Level Estimated
04:07AM 36.0337 137.8985 239° Southwest  Level Estimated
04:08AM 35.9901 137.8095 239° Southwest  Level Estimated
04:09AM 35.9464 137.7207 239° Southwest  Level Estimated
04:10AM 35.9027 137.6319 239° Southwest  Level Estimated
04:11AM 35.8589 137.5432 239° Southwest  Level Estimated
04:12AM 35.8150 137.4546 239° Southwest  Level Estimated
04:13AM 35.7710 137.3661 239° Southwest  Level Estimated
04:14AM 35.7271 137.2777 239° Southwest  Level Estimated
04:15AM 35.6830 137.1894 238° Southwest  Level Estimated
04:16AM 35.6389 137.1012 238° Southwest  Level Estimated
04:17AM 35.5947 137.0130 238° Southwest  Level Estimated
04:18AM 35.5504 136.9250 238° Southwest  Level Estimated
04:19AM 35.5061 136.8371 238° Southwest  Level Estimated
04:20AM 35.4617 136.7493 238° Southwest  Level Estimated
04:21AM 35.4172 136.6616 238° Southwest  Level Estimated
04:22AM 35.3727 136.5740 238° Southwest  Level Estimated
04:23AM 35.3281 136.4864 238° Southwest  Level Estimated
04:24AM 35.2835 136.3990 238° Southwest  Level Estimated
04:25AM 35.2388 136.3117 238° Southwest  Level Estimated
04:26AM 35.1940 136.2244 238° Southwest  Level Estimated
04:27AM 35.1492 136.1373 238° Southwest  Level Estimated
04:28AM 35.1043 136.0502 238° Southwest  Level Estimated
04:29AM 35.0594 135.9633 238° Southwest  Level Estimated
04:30AM 35.0144 135.8764 238° Southwest  Level Estimated
04:31AM 34.9693 135.7897 238° Southwest  Level Estimated
04:32AM 34.9241 135.7030 238° Southwest  Level Estimated
04:33AM 34.8789 135.6165 238° Southwest  Level Estimated
04:34AM 34.8337 135.5300 237° Southwest  Level Estimated
04:35AM 34.7883 135.4436 237° Southwest  Level Estimated
04:36AM 34.7855 135.4382 237° Southwest  Level Estimated
04:37AM 34.7855 135.4382 141° Southeast  Level Estimated
04:38AM 34.7855 135.4382 141° Southeast  Level Estimated
04:39AM 34.7855 135.4382 141° Southeast  Level Estimated
04:40AM 34.7855 135.4382 141° Southeast  Level Estimated
04:41AM 34.7855 135.4382 141° Southeast  Level Estimated
04:42AM 34.7855 135.4382 141° Southeast  Level Estimated
04:43AM 34.7855 135.4382 141° Southeast  Level Estimated
04:44AM 34.7855 135.4382 141° Southeast  Level Estimated
04:45AM 34.7855 135.4382 141° Southeast  Level Estimated
04:46AM 34.7855 135.4382 141° Southeast  Level Estimated
04:47AM 34.7855 135.4382 141° Southeast  Level Estimated
04:48AM 34.7855 135.4382 141° Southeast  Level Estimated